sensor_id;sensor_type;location;lat;lon;timestamp;P1;durP1;ratioP1;P2;durP2;ratioP2
15285;SDS011;7744;52.172;10.668;2023-04-30T07:01:16;5.38;;;2.10;;
15285;SDS011;7744;52.172;10.668;2023-04-30T07:03:42;6.45;;;2.22;;
15285;SDS011;7744;52.172;10.668;2023-04-30T07:06:08;5.60;;;2.28;;
15285;SDS011;7744;52.172;10.668;2023-04-30T07:11:05;7.97;;;2.40;;
15285;SDS011;7744;52.172;10.668;2023-04-30T07:13:30;5.90;;;2.40;;
15285;SDS011;7744;52.172;10.668;2023-04-30T07:15:56;7.38;;;2.70;;
15285;SDS011;7744;52.172;10.668;2023-04-30T07:18:23;5.20;;;2.10;;
15285;SDS011;7744;52.172;10.668;2023-04-30T07:20:48;6.45;;;2.58;;
15285;SDS011;7744;52.172;10.668;2023-04-30T07:23:14;7.20;;;2.60;;
15285;SDS011;7744;52.172;10.668;2023-04-30T07:25:41;6.20;;;2.73;;
15285;SDS011;7744;52.172;10.668;2023-04-30T07:28:07;7.00;;;2.40;;
15285;SDS011;7744;52.172;10.668;2023-04-30T07:30:33;6.63;;;2.50;;
15285;SDS011;7744;52.172;10.668;2023-04-30T07:32:59;7.93;;;2.73;;
15285;SDS011;7744;52.172;10.668;2023-04-30T07:35:24;6.97;;;2.47;;
15285;SDS011;7744;52.172;10.668;2023-04-30T07:37:51;9.13;;;3.03;;
15285;SDS011;7744;52.172;10.668;2023-04-30T07:40:18;9.67;;;2.47;;
15285;SDS011;7744;52.172;10.668;2023-04-30T07:42:49;6.53;;;2.73;;
15285;SDS011;7744;52.172;10.668;2023-04-30T07:45:19;7.67;;;2.80;;
15285;SDS011;7744;52.172;10.668;2023-04-30T07:47:46;6.60;;;2.53;;
15285;SDS011;7744;52.172;10.668;2023-04-30T07:50:12;8.13;;;2.80;;
15285;SDS011;7744;52.172;10.668;2023-04-30T07:52:39;9.13;;;3.87;;
15285;SDS011;7744;52.172;10.668;2023-04-30T07:55:05;5.80;;;2.27;;
15285;SDS011;7744;52.172;10.668;2023-04-30T07:57:31;6.90;;;2.40;;
15285;SDS011;7744;52.172;10.668;2023-04-30T07:59:56;7.53;;;2.33;;
15285;SDS011;7744;52.172;10.668;2023-04-30T08:02:22;5.60;;;2.80;;
15285;SDS011;7744;52.172;10.668;2023-04-30T08:04:48;7.63;;;3.00;;
15285;SDS011;7744;52.172;10.668;2023-04-30T08:07:13;7.73;;;3.00;;
15285;SDS011;7744;52.172;10.668;2023-04-30T08:09:41;6.17;;;3.07;;
15285;SDS011;7744;52.172;10.668;2023-04-30T08:12:08;11.00;;;2.60;;
15285;SDS011;7744;52.172;10.668;2023-04-30T08:14:34;8.27;;;2.37;;
15285;SDS011;7744;52.172;10.668;2023-04-30T08:16:59;6.27;;;2.60;;
15285;SDS011;7744;52.172;10.668;2023-04-30T08:19:26;8.83;;;2.67;;
15285;SDS011;7744;52.172;10.668;2023-04-30T08:21:52;9.83;;;3.20;;
15285;SDS011;7744;52.172;10.668;2023-04-30T08:24:17;6.87;;;2.40;;
15285;SDS011;7744;52.172;10.668;2023-04-30T08:26:43;7.13;;;2.40;;
15285;SDS011;7744;52.172;10.668;2023-04-30T08:29:08;8.43;;;2.70;;
15285;SDS011;7744;52.172;10.668;2023-04-30T08:31:34;7.07;;;2.50;;
15285;SDS011;7744;52.172;10.668;2023-04-30T08:34:00;8.10;;;2.63;;
15285;SDS011;7744;52.172;10.668;2023-04-30T08:36:26;7.73;;;2.43;;
15285;SDS011;7744;52.172;10.668;2023-04-30T08:38:52;7.30;;;2.70;;
15285;SDS011;7744;52.172;10.668;2023-04-30T08:41:19;6.67;;;2.60;;
15285;SDS011;7744;52.172;10.668;2023-04-30T08:43:51;7.57;;;2.60;;
15285;SDS011;7744;52.172;10.668;2023-04-30T08:46:19;8.50;;;2.40;;
15285;SDS011;7744;52.172;10.668;2023-04-30T08:48:47;8.10;;;2.93;;
15285;SDS011;7744;52.172;10.668;2023-04-30T08:51:12;4.77;;;2.10;;
15285;SDS011;7744;52.172;10.668;2023-04-30T08:53:38;5.93;;;2.50;;
15285;SDS011;7744;52.172;10.668;2023-04-30T08:56:06;6.83;;;2.70;;
15285;SDS011;7744;52.172;10.668;2023-04-30T08:58:34;8.53;;;2.87;;
15285;SDS011;7744;52.172;10.668;2023-04-30T09:01:00;4.97;;;2.70;;
15285;SDS011;7744;52.172;10.668;2023-04-30T09:03:26;6.10;;;2.50;;
15285;SDS011;7744;52.172;10.668;2023-04-30T09:05:53;4.80;;;2.43;;
15285;SDS011;7744;52.172;10.668;2023-04-30T09:08:19;5.13;;;2.53;;
15285;SDS011;7744;52.172;10.668;2023-04-30T09:11:18;5.87;;;2.57;;
15285;SDS011;7744;52.172;10.668;2023-04-30T09:13:48;7.77;;;2.50;;
15285;SDS011;7744;52.172;10.668;2023-04-30T09:16:19;5.40;;;2.17;;
15285;SDS011;7744;52.172;10.668;2023-04-30T09:18:45;9.47;;;2.37;;
15285;SDS011;7744;52.172;10.668;2023-04-30T09:21:11;10.20;;;2.73;;
15285;SDS011;7744;52.172;10.668;2023-04-30T09:23:59;6.73;;;2.70;;
15285;SDS011;7744;52.172;10.668;2023-04-30T09:26:26;6.13;;;2.37;;
15285;SDS011;7744;52.172;10.668;2023-04-30T09:28:56;6.00;;;2.30;;
15285;SDS011;7744;52.172;10.668;2023-04-30T09:31:23;6.03;;;2.40;;
15285;SDS011;7744;52.172;10.668;2023-04-30T09:33:50;7.17;;;2.23;;
15285;SDS011;7744;52.172;10.668;2023-04-30T09:36:16;6.87;;;2.53;;
15285;SDS011;7744;52.172;10.668;2023-04-30T09:38:51;4.50;;;2.20;;
15285;SDS011;7744;52.172;10.668;2023-04-30T09:43:50;4.37;;;2.37;;
15285;SDS011;7744;52.172;10.668;2023-04-30T09:46:17;5.03;;;2.00;;
15285;SDS011;7744;52.172;10.668;2023-04-30T09:48:46;5.83;;;2.37;;
15285;SDS011;7744;52.172;10.668;2023-04-30T09:51:20;5.13;;;2.33;;
15285;SDS011;7744;52.172;10.668;2023-04-30T09:53:46;8.30;;;2.77;;
15285;SDS011;7744;52.172;10.668;2023-04-30T09:56:12;8.37;;;2.50;;
15285;SDS011;7744;52.172;10.668;2023-04-30T09:58:43;4.33;;;2.00;;
15285;SDS011;7744;52.172;10.668;2023-04-30T10:01:14;4.33;;;2.10;;
15285;SDS011;7744;52.172;10.668;2023-04-30T10:03:41;4.87;;;2.30;;
15285;SDS011;7744;52.172;10.668;2023-04-30T10:06:07;5.27;;;2.40;;
15285;SDS011;7744;52.172;10.668;2023-04-30T10:08:39;4.30;;;2.27;;
15285;SDS011;7744;52.172;10.668;2023-04-30T10:11:06;4.27;;;2.20;;
15285;SDS011;7744;52.172;10.668;2023-04-30T10:13:41;4.33;;;2.10;;
15285;SDS011;7744;52.172;10.668;2023-04-30T10:18:53;4.93;;;2.40;;
15285;SDS011;7744;52.172;10.668;2023-04-30T10:21:22;4.60;;;2.20;;
15285;SDS011;7744;52.172;10.668;2023-04-30T10:23:50;8.37;;;2.43;;
15285;SDS011;7744;52.172;10.668;2023-04-30T10:26:18;4.57;;;2.20;;
15285;SDS011;7744;52.172;10.668;2023-04-30T10:28:44;6.23;;;2.20;;
15285;SDS011;7744;52.172;10.668;2023-04-30T10:31:12;4.13;;;2.50;;
15285;SDS011;7744;52.172;10.668;2023-04-30T10:33:52;6.40;;;2.20;;
15285;SDS011;7744;52.172;10.668;2023-04-30T10:36:38;6.50;;;2.50;;
15285;SDS011;7744;52.172;10.668;2023-04-30T10:39:10;4.80;;;2.77;;
15285;SDS011;7744;52.172;10.668;2023-04-30T10:41:37;4.00;;;2.20;;
15285;SDS011;7744;52.172;10.668;2023-04-30T10:44:03;5.40;;;2.30;;
15285;SDS011;7744;52.172;10.668;2023-04-30T10:46:33;4.53;;;2.20;;
15285;SDS011;7744;52.172;10.668;2023-04-30T10:48:59;5.53;;;2.40;;
15285;SDS011;7744;52.172;10.668;2023-04-30T10:51:25;5.47;;;2.40;;
15285;SDS011;7744;52.172;10.668;2023-04-30T10:54:26;5.38;;;2.00;;
15285;SDS011;7744;52.172;10.668;2023-04-30T10:56:53;5.60;;;2.43;;
15285;SDS011;7744;52.172;10.668;2023-04-30T10:59:33;6.87;;;1.93;;
15285;SDS011;7744;52.172;10.668;2023-04-30T11:01:59;3.23;;;1.77;;
15285;SDS011;7744;52.172;10.668;2023-04-30T11:04:33;5.27;;;2.10;;
15285;SDS011;7744;52.172;10.668;2023-04-30T11:07:36;4.70;;;2.40;;
15285;SDS011;7744;52.172;10.668;2023-04-30T11:10:06;6.20;;;2.30;;
15285;SDS011;7744;52.172;10.668;2023-04-30T11:12:34;4.13;;;2.27;;
15285;SDS011;7744;52.172;10.668;2023-04-30T11:15:10;4.50;;;2.20;;
15285;SDS011;7744;52.172;10.668;2023-04-30T11:17:37;5.87;;;2.40;;
15285;SDS011;7744;52.172;10.668;2023-04-30T11:20:03;3.63;;;1.87;;
15285;SDS011;7744;52.172;10.668;2023-04-30T11:22:47;5.63;;;2.20;;
15285;SDS011;7744;52.172;10.668;2023-04-30T11:25:42;7.10;;;3.10;;
15285;SDS011;7744;52.172;10.668;2023-04-30T11:28:24;5.32;;;3.10;;
15285;SDS011;7744;52.172;10.668;2023-04-30T11:31:08;6.13;;;2.40;;
15285;SDS011;7744;52.172;10.668;2023-04-30T11:33:40;5.85;;;2.30;;
15285;SDS011;7744;52.172;10.668;2023-04-30T11:36:05;4.73;;;2.30;;
15285;SDS011;7744;52.172;10.668;2023-04-30T11:38:33;4.83;;;2.30;;
15285;SDS011;7744;52.172;10.668;2023-04-30T11:41:00;5.07;;;2.28;;
15285;SDS011;7744;52.172;10.668;2023-04-30T11:43:28;6.13;;;2.37;;
15285;SDS011;7744;52.172;10.668;2023-04-30T11:46:03;5.38;;;2.80;;
15285;SDS011;7744;52.172;10.668;2023-04-30T11:48:36;5.75;;;2.53;;
15285;SDS011;7744;52.172;10.668;2023-04-30T11:51:21;6.65;;;2.20;;
15285;SDS011;7744;52.172;10.668;2023-04-30T11:53:50;2.55;;;1.75;;
15285;SDS011;7744;52.172;10.668;2023-04-30T11:56:20;3.28;;;2.10;;
15285;SDS011;7744;52.172;10.668;2023-04-30T11:58:48;5.60;;;2.45;;
15285;SDS011;7744;52.172;10.668;2023-04-30T12:01:16;4.03;;;2.20;;
15285;SDS011;7744;52.172;10.668;2023-04-30T12:03:45;4.43;;;2.33;;
15285;SDS011;7744;52.172;10.668;2023-04-30T12:06:22;4.60;;;1.90;;
15285;SDS011;7744;52.172;10.668;2023-04-30T12:08:50;5.40;;;2.30;;
15285;SDS011;7744;52.172;10.668;2023-04-30T12:11:21;7.85;;;2.42;;
15285;SDS011;7744;52.172;10.668;2023-04-30T12:20:00;5.50;;;2.30;;
15285;SDS011;7744;52.172;10.668;2023-04-30T12:22:28;4.32;;;2.08;;
15285;SDS011;7744;52.172;10.668;2023-04-30T12:24:57;5.80;;;2.05;;
15285;SDS011;7744;52.172;10.668;2023-04-30T12:27:29;5.03;;;2.40;;
15285;SDS011;7744;52.172;10.668;2023-04-30T12:29:55;4.93;;;2.08;;
15285;SDS011;7744;52.172;10.668;2023-04-30T12:32:21;5.20;;;2.00;;
15285;SDS011;7744;52.172;10.668;2023-04-30T12:34:47;4.40;;;2.20;;
15285;SDS011;7744;52.172;10.668;2023-04-30T12:37:15;4.20;;;2.05;;
15285;SDS011;7744;52.172;10.668;2023-04-30T12:39:41;5.38;;;2.00;;
15285;SDS011;7744;52.172;10.668;2023-04-30T12:42:07;4.63;;;1.83;;
15285;SDS011;7744;52.172;10.668;2023-04-30T12:44:44;3.40;;;2.17;;
15285;SDS011;7744;52.172;10.668;2023-04-30T12:50:06;3.72;;;1.83;;
15285;SDS011;7744;52.172;10.668;2023-04-30T12:55:39;3.70;;;1.92;;
15285;SDS011;7744;52.172;10.668;2023-04-30T12:58:06;5.05;;;2.28;;
15285;SDS011;7744;52.172;10.668;2023-04-30T13:00:42;5.07;;;1.90;;
15285;SDS011;7744;52.172;10.668;2023-04-30T13:03:18;5.25;;;2.17;;
15285;SDS011;7744;52.172;10.668;2023-04-30T13:05:56;5.15;;;2.10;;
15285;SDS011;7744;52.172;10.668;2023-04-30T13:08:22;4.68;;;2.10;;
15285;SDS011;7744;52.172;10.668;2023-04-30T13:10:48;6.05;;;2.60;;
15285;SDS011;7744;52.172;10.668;2023-04-30T13:13:16;3.53;;;2.20;;
15285;SDS011;7744;52.172;10.668;2023-04-30T13:21:08;3.58;;;2.05;;
15285;SDS011;7744;52.172;10.668;2023-04-30T13:23:34;3.13;;;2.00;;
15285;SDS011;7744;52.172;10.668;2023-04-30T13:26:00;3.55;;;2.03;;
15285;SDS011;7744;52.172;10.668;2023-04-30T13:28:26;6.00;;;2.28;;
15285;SDS011;7744;52.172;10.668;2023-04-30T13:30:52;3.88;;;1.77;;
15285;SDS011;7744;52.172;10.668;2023-04-30T13:33:17;3.53;;;1.75;;
15285;SDS011;7744;52.172;10.668;2023-04-30T13:35:43;4.45;;;2.10;;
15285;SDS011;7744;52.172;10.668;2023-04-30T13:38:10;79.25;;;5.75;;
15285;SDS011;7744;52.172;10.668;2023-04-30T13:43:11;4.85;;;1.75;;
15285;SDS011;7744;52.172;10.668;2023-04-30T13:45:37;4.95;;;2.00;;
15285;SDS011;7744;52.172;10.668;2023-04-30T13:48:03;4.35;;;2.10;;
15285;SDS011;7744;52.172;10.668;2023-04-30T13:50:28;4.65;;;1.95;;
15285;SDS011;7744;52.172;10.668;2023-04-30T13:52:54;2.80;;;1.83;;
15285;SDS011;7744;52.172;10.668;2023-04-30T13:55:23;4.93;;;2.00;;
15285;SDS011;7744;52.172;10.668;2023-04-30T13:57:49;5.63;;;1.70;;
15285;SDS011;7744;52.172;10.668;2023-04-30T14:00:15;3.50;;;1.60;;
15285;SDS011;7744;52.172;10.668;2023-04-30T14:02:41;2.97;;;1.77;;
15285;SDS011;7744;52.172;10.668;2023-04-30T14:05:06;3.95;;;1.80;;
15285;SDS011;7744;52.172;10.668;2023-04-30T14:07:32;5.57;;;2.33;;
15285;SDS011;7744;52.172;10.668;2023-04-30T14:09:58;5.15;;;2.13;;
15285;SDS011;7744;52.172;10.668;2023-04-30T14:12:23;4.82;;;2.00;;
15285;SDS011;7744;52.172;10.668;2023-04-30T14:14:49;2.95;;;1.65;;
15285;SDS011;7744;52.172;10.668;2023-04-30T14:17:15;5.50;;;2.33;;
15285;SDS011;7744;52.172;10.668;2023-04-30T14:19:40;3.80;;;2.00;;
15285;SDS011;7744;52.172;10.668;2023-04-30T14:22:06;3.25;;;1.75;;
15285;SDS011;7744;52.172;10.668;2023-04-30T14:24:31;4.22;;;1.98;;
15285;SDS011;7744;52.172;10.668;2023-04-30T14:27:04;3.78;;;1.83;;
15285;SDS011;7744;52.172;10.668;2023-04-30T14:29:29;7.75;;;2.03;;
15285;SDS011;7744;52.172;10.668;2023-04-30T14:31:59;4.75;;;1.73;;
15285;SDS011;7744;52.172;10.668;2023-04-30T14:34:25;4.13;;;1.92;;
15285;SDS011;7744;52.172;10.668;2023-04-30T14:36:51;4.78;;;1.92;;
15285;SDS011;7744;52.172;10.668;2023-04-30T14:39:25;3.95;;;1.90;;
15285;SDS011;7744;52.172;10.668;2023-04-30T14:41:52;4.93;;;2.13;;
15285;SDS011;7744;52.172;10.668;2023-04-30T14:44:17;3.35;;;1.73;;
15285;SDS011;7744;52.172;10.668;2023-04-30T14:46:43;3.35;;;1.60;;
15285;SDS011;7744;52.172;10.668;2023-04-30T14:49:09;3.92;;;2.00;;
15285;SDS011;7744;52.172;10.668;2023-04-30T14:51:35;3.83;;;2.08;;
15285;SDS011;7744;52.172;10.668;2023-04-30T14:54:07;4.63;;;2.25;;
15285;SDS011;7744;52.172;10.668;2023-04-30T14:56:33;4.07;;;1.67;;
15285;SDS011;7744;52.172;10.668;2023-04-30T14:58:58;3.97;;;1.95;;
15285;SDS011;7744;52.172;10.668;2023-04-30T15:01:24;5.00;;;2.20;;
15285;SDS011;7744;52.172;10.668;2023-04-30T15:03:50;5.93;;;2.50;;
15285;SDS011;7744;52.172;10.668;2023-04-30T15:06:33;3.53;;;1.88;;
15285;SDS011;7744;52.172;10.668;2023-04-30T15:08:58;3.22;;;1.88;;
15285;SDS011;7744;52.172;10.668;2023-04-30T15:11:25;4.53;;;1.90;;
15285;SDS011;7744;52.172;10.668;2023-04-30T15:13:51;4.43;;;2.10;;
15285;SDS011;7744;52.172;10.668;2023-04-30T15:16:17;4.85;;;2.45;;
15285;SDS011;7744;52.172;10.668;2023-04-30T15:18:43;3.92;;;1.75;;
15285;SDS011;7744;52.172;10.668;2023-04-30T15:21:09;3.45;;;2.22;;
15285;SDS011;7744;52.172;10.668;2023-04-30T15:23:34;5.05;;;1.75;;
15285;SDS011;7744;52.172;10.668;2023-04-30T15:26:00;3.30;;;1.70;;
15285;SDS011;7744;52.172;10.668;2023-04-30T15:28:27;4.95;;;1.85;;
15285;SDS011;7744;52.172;10.668;2023-04-30T15:30:53;5.15;;;1.80;;
15285;SDS011;7744;52.172;10.668;2023-04-30T15:33:19;5.65;;;1.90;;
15285;SDS011;7744;52.172;10.668;2023-04-30T15:35:46;4.65;;;1.70;;
15285;SDS011;7744;52.172;10.668;2023-04-30T15:38:12;2.83;;;1.65;;
15285;SDS011;7744;52.172;10.668;2023-04-30T15:40:38;4.30;;;2.20;;
15285;SDS011;7744;52.172;10.668;2023-04-30T15:43:04;4.72;;;2.13;;
15285;SDS011;7744;52.172;10.668;2023-04-30T15:45:30;5.13;;;2.08;;
15285;SDS011;7744;52.172;10.668;2023-04-30T15:47:57;3.60;;;1.95;;
15285;SDS011;7744;52.172;10.668;2023-04-30T15:50:25;3.67;;;1.80;;
15285;SDS011;7744;52.172;10.668;2023-04-30T15:52:53;3.38;;;1.75;;
15285;SDS011;7744;52.172;10.668;2023-04-30T15:55:21;3.65;;;1.90;;
15285;SDS011;7744;52.172;10.668;2023-04-30T15:57:47;4.10;;;1.98;;
15285;SDS011;7744;52.172;10.668;2023-04-30T16:00:13;4.13;;;2.10;;
15285;SDS011;7744;52.172;10.668;2023-04-30T16:02:39;3.15;;;1.75;;
15285;SDS011;7744;52.172;10.668;2023-04-30T16:05:05;3.03;;;1.63;;
15285;SDS011;7744;52.172;10.668;2023-04-30T16:07:31;4.03;;;1.70;;
15285;SDS011;7744;52.172;10.668;2023-04-30T16:09:59;3.55;;;1.58;;
15285;SDS011;7744;52.172;10.668;2023-04-30T16:12:25;3.63;;;1.65;;
15285;SDS011;7744;52.172;10.668;2023-04-30T16:14:51;3.42;;;1.88;;
15285;SDS011;7744;52.172;10.668;2023-04-30T16:17:17;3.13;;;1.90;;
15285;SDS011;7744;52.172;10.668;2023-04-30T16:19:43;4.22;;;1.90;;
15285;SDS011;7744;52.172;10.668;2023-04-30T16:22:09;3.35;;;1.60;;
15285;SDS011;7744;52.172;10.668;2023-04-30T16:24:35;3.10;;;1.80;;
15285;SDS011;7744;52.172;10.668;2023-04-30T16:27:01;6.93;;;1.58;;
15285;SDS011;7744;52.172;10.668;2023-04-30T16:29:27;3.45;;;1.58;;
15285;SDS011;7744;52.172;10.668;2023-04-30T16:32:01;6.75;;;1.98;;
15285;SDS011;7744;52.172;10.668;2023-04-30T16:34:26;5.63;;;1.60;;
15285;SDS011;7744;52.172;10.668;2023-04-30T16:36:52;1.88;;;1.20;;
15285;SDS011;7744;52.172;10.668;2023-04-30T16:39:18;3.20;;;1.50;;
15285;SDS011;7744;52.172;10.668;2023-04-30T16:41:45;2.42;;;1.40;;
15285;SDS011;7744;52.172;10.668;2023-04-30T16:44:11;4.03;;;1.40;;
15285;SDS011;7744;52.172;10.668;2023-04-30T16:46:38;3.05;;;1.60;;
15285;SDS011;7744;52.172;10.668;2023-04-30T16:49:04;2.70;;;1.23;;
15285;SDS011;7744;52.172;10.668;2023-04-30T16:51:29;2.13;;;1.30;;
15285;SDS011;7744;52.172;10.668;2023-04-30T16:53:57;2.50;;;1.42;;
15285;SDS011;7744;52.172;10.668;2023-04-30T16:56:22;3.33;;;1.60;;
15285;SDS011;7744;52.172;10.668;2023-04-30T16:58:49;2.97;;;1.60;;
15285;SDS011;7744;52.172;10.668;2023-04-30T17:01:15;2.70;;;1.55;;
15285;SDS011;7744;52.172;10.668;2023-04-30T17:03:41;3.03;;;1.50;;
15285;SDS011;7744;52.172;10.668;2023-04-30T17:06:07;3.80;;;1.42;;
15285;SDS011;7744;52.172;10.668;2023-04-30T17:08:44;1.88;;;1.23;;
15285;SDS011;7744;52.172;10.668;2023-04-30T17:11:09;2.42;;;1.42;;
15285;SDS011;7744;52.172;10.668;2023-04-30T17:13:35;2.92;;;1.77;;
15285;SDS011;7744;52.172;10.668;2023-04-30T17:16:19;3.15;;;1.77;;
15285;SDS011;7744;52.172;10.668;2023-04-30T17:19:02;2.95;;;1.48;;
15285;SDS011;7744;52.172;10.668;2023-04-30T17:21:34;3.03;;;1.77;;
15285;SDS011;7744;52.172;10.668;2023-04-30T17:24:00;4.07;;;1.73;;
15285;SDS011;7744;52.172;10.668;2023-04-30T17:26:26;2.90;;;1.60;;
15285;SDS011;7744;52.172;10.668;2023-04-30T17:28:55;2.55;;;1.95;;
15285;SDS011;7744;52.172;10.668;2023-04-30T17:31:24;3.55;;;1.73;;
15285;SDS011;7744;52.172;10.668;2023-04-30T17:40:52;4.45;;;1.73;;
15285;SDS011;7744;52.172;10.668;2023-04-30T18:00:12;5.95;;;1.70;;
15285;SDS011;7744;52.172;10.668;2023-04-30T18:02:39;3.47;;;1.40;;
15285;SDS011;7744;52.172;10.668;2023-04-30T18:05:05;4.88;;;1.75;;
15285;SDS011;7744;52.172;10.668;2023-04-30T18:07:31;3.10;;;1.53;;
15285;SDS011;7744;52.172;10.668;2023-04-30T18:09:57;3.13;;;1.55;;
15285;SDS011;7744;52.172;10.668;2023-04-30T18:12:28;4.82;;;2.00;;
15285;SDS011;7744;52.172;10.668;2023-04-30T18:14:54;3.87;;;1.60;;
15285;SDS011;7744;52.172;10.668;2023-04-30T18:17:19;3.63;;;1.70;;
15285;SDS011;7744;52.172;10.668;2023-04-30T18:20:00;3.37;;;1.77;;
15285;SDS011;7744;52.172;10.668;2023-04-30T18:22:26;4.17;;;2.17;;
15285;SDS011;7744;52.172;10.668;2023-04-30T18:24:52;4.90;;;2.03;;
15285;SDS011;7744;52.172;10.668;2023-04-30T18:27:18;4.20;;;1.83;;
15285;SDS011;7744;52.172;10.668;2023-04-30T18:29:44;4.47;;;1.90;;
15285;SDS011;7744;52.172;10.668;2023-04-30T18:32:10;4.47;;;2.03;;
15285;SDS011;7744;52.172;10.668;2023-04-30T18:34:38;2.63;;;1.80;;
15285;SDS011;7744;52.172;10.668;2023-04-30T18:37:04;2.07;;;1.37;;
15285;SDS011;7744;52.172;10.668;2023-04-30T18:39:29;2.83;;;1.60;;
15285;SDS011;7744;52.172;10.668;2023-04-30T18:41:55;5.57;;;2.10;;
15285;SDS011;7744;52.172;10.668;2023-04-30T18:44:27;4.83;;;1.90;;
15285;SDS011;7744;52.172;10.668;2023-04-30T18:47:13;4.53;;;2.00;;
15285;SDS011;7744;52.172;10.668;2023-04-30T18:49:38;3.20;;;1.90;;
15285;SDS011;7744;52.172;10.668;2023-04-30T18:52:04;3.97;;;1.90;;
15285;SDS011;7744;52.172;10.668;2023-04-30T18:54:29;4.87;;;2.17;;
15285;SDS011;7744;52.172;10.668;2023-04-30T18:56:55;4.57;;;2.10;;
15285;SDS011;7744;52.172;10.668;2023-04-30T18:59:21;3.77;;;2.10;;
15285;SDS011;7744;52.172;10.668;2023-04-30T19:01:47;4.63;;;1.93;;
15285;SDS011;7744;52.172;10.668;2023-04-30T19:04:15;5.27;;;2.30;;
15285;SDS011;7744;52.172;10.668;2023-04-30T19:06:41;5.97;;;2.20;;
15285;SDS011;7744;52.172;10.668;2023-04-30T19:09:07;5.13;;;2.37;;
15285;SDS011;7744;52.172;10.668;2023-04-30T19:11:33;4.40;;;2.40;;
15285;SDS011;7744;52.172;10.668;2023-04-30T19:13:59;4.77;;;2.50;;
15285;SDS011;7744;52.172;10.668;2023-04-30T19:16:25;3.40;;;2.00;;
15285;SDS011;7744;52.172;10.668;2023-04-30T19:18:51;5.57;;;2.30;;
15285;SDS011;7744;52.172;10.668;2023-04-30T19:21:16;2.83;;;1.70;;
15285;SDS011;7744;52.172;10.668;2023-04-30T19:23:43;3.43;;;2.17;;
15285;SDS011;7744;52.172;10.668;2023-04-30T19:26:09;4.10;;;2.27;;
15285;SDS011;7744;52.172;10.668;2023-04-30T19:28:34;4.67;;;2.30;;
15285;SDS011;7744;52.172;10.668;2023-04-30T19:31:00;2.37;;;1.83;;
15285;SDS011;7744;52.172;10.668;2023-04-30T19:33:28;4.50;;;2.23;;
15285;SDS011;7744;52.172;10.668;2023-04-30T19:35:57;5.57;;;2.20;;
15285;SDS011;7744;52.172;10.668;2023-04-30T19:38:22;3.23;;;2.23;;
15285;SDS011;7744;52.172;10.668;2023-04-30T19:40:49;3.83;;;2.37;;
15285;SDS011;7744;52.172;10.668;2023-04-30T19:43:22;3.63;;;2.07;;
15285;SDS011;7744;52.172;10.668;2023-04-30T19:45:49;4.53;;;2.17;;
15285;SDS011;7744;52.172;10.668;2023-04-30T19:48:16;5.10;;;2.40;;
15285;SDS011;7744;52.172;10.668;2023-04-30T19:50:42;6.07;;;3.00;;
15285;SDS011;7744;52.172;10.668;2023-04-30T19:53:12;4.50;;;2.60;;
15285;SDS011;7744;52.172;10.668;2023-04-30T19:55:39;3.67;;;2.90;;
15285;SDS011;7744;52.172;10.668;2023-04-30T19:58:07;5.47;;;2.67;;
15285;SDS011;7744;52.172;10.668;2023-04-30T20:00:38;3.53;;;2.60;;
15285;SDS011;7744;52.172;10.668;2023-04-30T20:03:06;4.70;;;2.80;;
15285;SDS011;7744;52.172;10.668;2023-04-30T20:05:39;6.60;;;2.83;;
15285;SDS011;7744;52.172;10.668;2023-04-30T20:08:06;4.97;;;3.07;;
15285;SDS011;7744;52.172;10.668;2023-04-30T20:10:32;4.87;;;3.30;;
15285;SDS011;7744;52.172;10.668;2023-04-30T20:13:00;5.67;;;3.40;;
15285;SDS011;7744;52.172;10.668;2023-04-30T20:15:29;7.30;;;3.70;;
15285;SDS011;7744;52.172;10.668;2023-04-30T20:17:55;8.10;;;4.43;;
15285;SDS011;7744;52.172;10.668;2023-04-30T20:20:36;7.77;;;5.17;;
15285;SDS011;7744;52.172;10.668;2023-04-30T20:23:09;6.53;;;4.23;;
15285;SDS011;7744;52.172;10.668;2023-04-30T20:25:38;5.87;;;3.73;;
15285;SDS011;7744;52.172;10.668;2023-04-30T20:28:06;5.67;;;3.90;;
15285;SDS011;7744;52.172;10.668;2023-04-30T20:30:32;5.17;;;3.60;;
15285;SDS011;7744;52.172;10.668;2023-04-30T20:32:58;4.57;;;3.33;;
15285;SDS011;7744;52.172;10.668;2023-04-30T20:35:24;5.53;;;3.57;;
15285;SDS011;7744;52.172;10.668;2023-04-30T20:37:50;6.57;;;3.83;;
15285;SDS011;7744;52.172;10.668;2023-04-30T20:40:19;5.43;;;3.50;;
15285;SDS011;7744;52.172;10.668;2023-04-30T20:42:45;5.80;;;3.00;;
15285;SDS011;7744;52.172;10.668;2023-04-30T20:45:12;5.93;;;3.20;;
15285;SDS011;7744;52.172;10.668;2023-04-30T20:47:39;6.87;;;3.00;;
15285;SDS011;7744;52.172;10.668;2023-04-30T20:50:05;3.10;;;2.80;;
15285;SDS011;7744;52.172;10.668;2023-04-30T20:52:31;4.27;;;2.70;;
15285;SDS011;7744;52.172;10.668;2023-04-30T20:54:58;3.43;;;2.80;;
15285;SDS011;7744;52.172;10.668;2023-04-30T20:57:24;3.97;;;2.77;;
15285;SDS011;7744;52.172;10.668;2023-04-30T20:59:50;5.17;;;2.90;;
15285;SDS011;7744;52.172;10.668;2023-04-30T21:02:16;6.20;;;3.20;;
15285;SDS011;7744;52.172;10.668;2023-04-30T21:04:42;5.67;;;3.00;;
15285;SDS011;7744;52.172;10.668;2023-04-30T21:07:08;5.77;;;3.43;;
15285;SDS011;7744;52.172;10.668;2023-04-30T21:09:34;4.00;;;3.10;;
15285;SDS011;7744;52.172;10.668;2023-04-30T21:12:02;4.27;;;3.30;;
15285;SDS011;7744;52.172;10.668;2023-04-30T21:14:29;6.80;;;4.27;;
15285;SDS011;7744;52.172;10.668;2023-04-30T21:16:56;8.80;;;7.93;;
15285;SDS011;7744;52.172;10.668;2023-04-30T21:19:22;11.03;;;9.93;;
15285;SDS011;7744;52.172;10.668;2023-04-30T21:21:48;12.60;;;11.37;;
15285;SDS011;7744;52.172;10.668;2023-04-30T21:24:14;8.60;;;7.77;;
15285;SDS011;7744;52.172;10.668;2023-04-30T21:26:40;9.67;;;7.77;;
15285;SDS011;7744;52.172;10.668;2023-04-30T21:29:05;6.83;;;5.10;;
15285;SDS011;7744;52.172;10.668;2023-04-30T21:31:31;7.03;;;3.80;;
15285;SDS011;7744;52.172;10.668;2023-04-30T21:33:57;5.63;;;4.00;;
15285;SDS011;7744;52.172;10.668;2023-04-30T21:36:22;4.33;;;3.80;;
15285;SDS011;7744;52.172;10.668;2023-04-30T21:38:48;5.63;;;3.90;;
15285;SDS011;7744;52.172;10.668;2023-04-30T21:41:14;5.00;;;3.43;;
15285;SDS011;7744;52.172;10.668;2023-04-30T21:43:41;5.33;;;3.73;;
15285;SDS011;7744;52.172;10.668;2023-04-30T21:46:06;6.43;;;4.13;;
15285;SDS011;7744;52.172;10.668;2023-04-30T21:48:33;6.47;;;4.20;;
15285;SDS011;7744;52.172;10.668;2023-04-30T21:50:59;5.00;;;3.57;;
15285;SDS011;7744;52.172;10.668;2023-04-30T21:53:25;7.37;;;3.87;;
15285;SDS011;7744;52.172;10.668;2023-04-30T21:55:51;7.37;;;3.80;;
15285;SDS011;7744;52.172;10.668;2023-04-30T21:58:17;5.70;;;3.70;;
15285;SDS011;7744;52.172;10.668;2023-04-30T22:00:42;6.10;;;3.87;;
15285;SDS011;7744;52.172;10.668;2023-04-30T22:03:08;7.80;;;3.90;;
15285;SDS011;7744;52.172;10.668;2023-04-30T22:05:34;7.50;;;4.23;;
15285;SDS011;7744;52.172;10.668;2023-04-30T22:08:02;7.60;;;3.90;;
15285;SDS011;7744;52.172;10.668;2023-04-30T22:10:29;6.13;;;4.53;;
15285;SDS011;7744;52.172;10.668;2023-04-30T22:13:03;8.00;;;4.83;;
15285;SDS011;7744;52.172;10.668;2023-04-30T22:15:30;7.97;;;4.20;;
15285;SDS011;7744;52.172;10.668;2023-04-30T22:17:57;6.87;;;4.33;;
15285;SDS011;7744;52.172;10.668;2023-04-30T22:20:22;7.97;;;4.50;;
15285;SDS011;7744;52.172;10.668;2023-04-30T22:22:48;7.53;;;4.17;;
15285;SDS011;7744;52.172;10.668;2023-04-30T22:25:13;5.80;;;4.03;;
15285;SDS011;7744;52.172;10.668;2023-04-30T22:27:39;5.23;;;3.80;;
15285;SDS011;7744;52.172;10.668;2023-04-30T22:30:05;9.37;;;4.47;;
15285;SDS011;7744;52.172;10.668;2023-04-30T22:32:31;6.87;;;4.57;;
15285;SDS011;7744;52.172;10.668;2023-04-30T22:34:57;6.57;;;4.13;;
15285;SDS011;7744;52.172;10.668;2023-04-30T22:37:23;5.33;;;3.70;;
15285;SDS011;7744;52.172;10.668;2023-04-30T22:39:50;6.40;;;4.40;;
15285;SDS011;7744;52.172;10.668;2023-04-30T22:42:16;5.67;;;3.93;;
15285;SDS011;7744;52.172;10.668;2023-04-30T22:44:41;6.57;;;4.30;;